Tipton, Missouri
Current Conditions -  °F | °C
As of 11:15 PM on Wednesday 26 Nov 2014 (Local Time) from KVER Reporting Station
Overcast Overcast  
Wind Chill: 25°   Ceiling: 1500
Heat Index: 33°   Visibility: 10mi
Dew Point: 29°   Wind: 12mph
Humidity: 85%   Direction: 310°NW
Pressure: 30.3"   Gusts: NA
Location:  38.66°N, 92.78°W
Report Text: KVER 270515Z AUTO 31010KT 10SM OVC015 01/M01 A3030 RMK AO2 T00081015
Loading
Personal Weather Stations






























Interactive Weather Map New forecast layout! Learn more

10-Day Weather Forecast

Advertisements
Track Severe Weather on mobile